sensor_id;sensor_type;location;lat;lon;timestamp;P1;durP1;ratioP1;P2;durP2;ratioP2
64560;SDS011;50960;46.838;16.838;2023-12-29T00:02:05;30.30;;;27.02;;
64560;SDS011;50960;46.838;16.838;2023-12-29T00:04:33;31.27;;;27.88;;
64560;SDS011;50960;46.838;16.838;2023-12-29T00:07:02;31.65;;;28.35;;
64560;SDS011;50960;46.838;16.838;2023-12-29T00:09:29;31.67;;;28.23;;
64560;SDS011;50960;46.838;16.838;2023-12-29T00:11:55;31.27;;;28.00;;
64560;SDS011;50960;46.838;16.838;2023-12-29T00:14:21;31.05;;;27.85;;
64560;SDS011;50960;46.838;16.838;2023-12-29T00:16:48;31.10;;;27.80;;
64560;SDS011;50960;46.838;16.838;2023-12-29T00:19:15;32.53;;;29.23;;
64560;SDS011;50960;46.838;16.838;2023-12-29T00:21:41;32.60;;;29.20;;
64560;SDS011;50960;46.838;16.838;2023-12-29T00:24:07;34.17;;;30.63;;
64560;SDS011;50960;46.838;16.838;2023-12-29T00:26:33;33.00;;;29.58;;
64560;SDS011;50960;46.838;16.838;2023-12-29T00:29:00;34.22;;;30.58;;
64560;SDS011;50960;46.838;16.838;2023-12-29T00:31:26;33.70;;;30.10;;
64560;SDS011;50960;46.838;16.838;2023-12-29T00:33:52;32.05;;;28.83;;
64560;SDS011;50960;46.838;16.838;2023-12-29T00:36:19;33.38;;;29.88;;
64560;SDS011;50960;46.838;16.838;2023-12-29T00:38:45;31.90;;;28.60;;
64560;SDS011;50960;46.838;16.838;2023-12-29T00:41:11;33.90;;;30.20;;
64560;SDS011;50960;46.838;16.838;2023-12-29T00:43:39;34.35;;;30.80;;
64560;SDS011;50960;46.838;16.838;2023-12-29T00:46:05;32.33;;;29.00;;
64560;SDS011;50960;46.838;16.838;2023-12-29T00:48:31;32.80;;;29.50;;
64560;SDS011;50960;46.838;16.838;2023-12-29T00:50:58;33.60;;;30.08;;
64560;SDS011;50960;46.838;16.838;2023-12-29T00:53:26;31.92;;;28.63;;
64560;SDS011;50960;46.838;16.838;2023-12-29T00:55:52;33.40;;;29.90;;
64560;SDS011;50960;46.838;16.838;2023-12-29T00:58:18;32.45;;;29.17;;
64560;SDS011;50960;46.838;16.838;2023-12-29T01:00:44;32.50;;;29.10;;
64560;SDS011;50960;46.838;16.838;2023-12-29T01:03:11;31.58;;;28.27;;
64560;SDS011;50960;46.838;16.838;2023-12-29T01:05:39;31.65;;;28.45;;
64560;SDS011;50960;46.838;16.838;2023-12-29T01:08:05;33.67;;;30.10;;
64560;SDS011;50960;46.838;16.838;2023-12-29T01:10:31;34.42;;;30.80;;
64560;SDS011;50960;46.838;16.838;2023-12-29T01:12:58;30.33;;;27.33;;
64560;SDS011;50960;46.838;16.838;2023-12-29T01:15:24;31.48;;;28.17;;
64560;SDS011;50960;46.838;16.838;2023-12-29T01:17:50;32.50;;;29.08;;
64560;SDS011;50960;46.838;16.838;2023-12-29T01:20:16;32.10;;;28.77;;
64560;SDS011;50960;46.838;16.838;2023-12-29T01:22:42;32.10;;;28.80;;
64560;SDS011;50960;46.838;16.838;2023-12-29T01:25:08;31.27;;;28.08;;
64560;SDS011;50960;46.838;16.838;2023-12-29T01:27:35;31.67;;;28.48;;
64560;SDS011;50960;46.838;16.838;2023-12-29T01:30:02;31.67;;;28.48;;
64560;SDS011;50960;46.838;16.838;2023-12-29T01:32:29;33.03;;;29.58;;
64560;SDS011;50960;46.838;16.838;2023-12-29T01:34:55;32.40;;;28.95;;
64560;SDS011;50960;46.838;16.838;2023-12-29T01:37:21;32.33;;;28.98;;
64560;SDS011;50960;46.838;16.838;2023-12-29T01:39:47;31.23;;;27.92;;
64560;SDS011;50960;46.838;16.838;2023-12-29T01:42:14;31.02;;;27.73;;
64560;SDS011;50960;46.838;16.838;2023-12-29T01:44:40;30.75;;;27.45;;
64560;SDS011;50960;46.838;16.838;2023-12-29T01:47:15;31.58;;;28.05;;
64560;SDS011;50960;46.838;16.838;2023-12-29T01:49:43;30.13;;;27.00;;
64560;SDS011;50960;46.838;16.838;2023-12-29T01:52:11;31.88;;;28.58;;
64560;SDS011;50960;46.838;16.838;2023-12-29T01:54:39;30.42;;;27.15;;
64560;SDS011;50960;46.838;16.838;2023-12-29T01:57:08;31.20;;;27.95;;
64560;SDS011;50960;46.838;16.838;2023-12-29T01:59:35;32.20;;;28.75;;
64560;SDS011;50960;46.838;16.838;2023-12-29T02:02:02;31.45;;;28.25;;
64560;SDS011;50960;46.838;16.838;2023-12-29T02:04:28;31.50;;;28.15;;
64560;SDS011;50960;46.838;16.838;2023-12-29T02:06:55;30.70;;;27.42;;
64560;SDS011;50960;46.838;16.838;2023-12-29T02:09:24;30.92;;;27.73;;
64560;SDS011;50960;46.838;16.838;2023-12-29T02:11:50;30.90;;;27.58;;
64560;SDS011;50960;46.838;16.838;2023-12-29T02:14:17;30.38;;;27.17;;
64560;SDS011;50960;46.838;16.838;2023-12-29T02:19:41;31.33;;;28.10;;
64560;SDS011;50960;46.838;16.838;2023-12-29T02:22:10;31.52;;;28.42;;
64560;SDS011;50960;46.838;16.838;2023-12-29T02:24:37;29.98;;;26.98;;
64560;SDS011;50960;46.838;16.838;2023-12-29T02:29:43;29.67;;;26.70;;
64560;SDS011;50960;46.838;16.838;2023-12-29T02:32:16;31.50;;;28.20;;
64560;SDS011;50960;46.838;16.838;2023-12-29T02:34:44;30.00;;;26.83;;
64560;SDS011;50960;46.838;16.838;2023-12-29T02:37:15;29.58;;;26.55;;
64560;SDS011;50960;46.838;16.838;2023-12-29T02:39:42;29.98;;;26.80;;
64560;SDS011;50960;46.838;16.838;2023-12-29T02:42:08;30.88;;;27.67;;
64560;SDS011;50960;46.838;16.838;2023-12-29T02:44:34;30.55;;;27.35;;
64560;SDS011;50960;46.838;16.838;2023-12-29T02:47:01;29.88;;;26.77;;
64560;SDS011;50960;46.838;16.838;2023-12-29T02:49:29;30.20;;;27.10;;
64560;SDS011;50960;46.838;16.838;2023-12-29T02:51:56;30.42;;;27.33;;
64560;SDS011;50960;46.838;16.838;2023-12-29T02:54:22;29.85;;;26.83;;
64560;SDS011;50960;46.838;16.838;2023-12-29T02:56:48;30.25;;;27.15;;
64560;SDS011;50960;46.838;16.838;2023-12-29T02:59:14;29.88;;;26.88;;
64560;SDS011;50960;46.838;16.838;2023-12-29T03:01:40;29.35;;;26.25;;
64560;SDS011;50960;46.838;16.838;2023-12-29T03:04:07;32.13;;;28.75;;
64560;SDS011;50960;46.838;16.838;2023-12-29T03:06:33;31.17;;;27.92;;
64560;SDS011;50960;46.838;16.838;2023-12-29T03:08:59;30.15;;;27.05;;
64560;SDS011;50960;46.838;16.838;2023-12-29T03:11:25;30.55;;;27.55;;
64560;SDS011;50960;46.838;16.838;2023-12-29T03:13:53;29.00;;;25.92;;
64560;SDS011;50960;46.838;16.838;2023-12-29T03:16:20;28.25;;;25.42;;
64560;SDS011;50960;46.838;16.838;2023-12-29T03:18:47;28.90;;;26.02;;
64560;SDS011;50960;46.838;16.838;2023-12-29T03:21:13;27.23;;;24.38;;
64560;SDS011;50960;46.838;16.838;2023-12-29T03:23:39;30.20;;;27.13;;
64560;SDS011;50960;46.838;16.838;2023-12-29T03:26:05;28.83;;;25.75;;
64560;SDS011;50960;46.838;16.838;2023-12-29T03:28:32;27.52;;;24.83;;
64560;SDS011;50960;46.838;16.838;2023-12-29T03:30:58;27.85;;;25.02;;
64560;SDS011;50960;46.838;16.838;2023-12-29T03:33:24;27.20;;;24.40;;
64560;SDS011;50960;46.838;16.838;2023-12-29T03:35:51;26.63;;;23.77;;
64560;SDS011;50960;46.838;16.838;2023-12-29T03:38:17;26.10;;;23.50;;
64560;SDS011;50960;46.838;16.838;2023-12-29T03:40:43;27.05;;;24.17;;
64560;SDS011;50960;46.838;16.838;2023-12-29T03:43:09;27.40;;;24.60;;
64560;SDS011;50960;46.838;16.838;2023-12-29T03:45:35;26.25;;;23.65;;
64560;SDS011;50960;46.838;16.838;2023-12-29T03:48:02;25.58;;;23.00;;
64560;SDS011;50960;46.838;16.838;2023-12-29T03:50:28;23.90;;;21.60;;
64560;SDS011;50960;46.838;16.838;2023-12-29T03:52:55;25.42;;;22.85;;
64560;SDS011;50960;46.838;16.838;2023-12-29T03:55:21;25.90;;;23.30;;
64560;SDS011;50960;46.838;16.838;2023-12-29T03:57:48;23.83;;;21.55;;
64560;SDS011;50960;46.838;16.838;2023-12-29T04:00:14;24.08;;;21.67;;
64560;SDS011;50960;46.838;16.838;2023-12-29T04:02:40;24.35;;;22.00;;
64560;SDS011;50960;46.838;16.838;2023-12-29T04:05:08;23.23;;;20.92;;
64560;SDS011;50960;46.838;16.838;2023-12-29T04:07:36;24.60;;;22.05;;
64560;SDS011;50960;46.838;16.838;2023-12-29T04:10:06;23.40;;;21.10;;
64560;SDS011;50960;46.838;16.838;2023-12-29T04:12:34;22.85;;;20.55;;
64560;SDS011;50960;46.838;16.838;2023-12-29T04:15:01;23.02;;;20.75;;
64560;SDS011;50960;46.838;16.838;2023-12-29T04:17:28;22.63;;;20.33;;
64560;SDS011;50960;46.838;16.838;2023-12-29T04:19:54;23.83;;;21.33;;
64560;SDS011;50960;46.838;16.838;2023-12-29T04:22:22;23.50;;;21.10;;
64560;SDS011;50960;46.838;16.838;2023-12-29T04:24:48;24.38;;;21.88;;
64560;SDS011;50960;46.838;16.838;2023-12-29T04:27:16;23.45;;;21.15;;
64560;SDS011;50960;46.838;16.838;2023-12-29T04:29:43;24.73;;;22.13;;
64560;SDS011;50960;46.838;16.838;2023-12-29T04:32:10;23.13;;;20.73;;
64560;SDS011;50960;46.838;16.838;2023-12-29T04:34:37;25.25;;;22.58;;
64560;SDS011;50960;46.838;16.838;2023-12-29T04:37:04;25.20;;;22.65;;
64560;SDS011;50960;46.838;16.838;2023-12-29T04:39:30;23.60;;;21.30;;
64560;SDS011;50960;46.838;16.838;2023-12-29T04:41:56;24.10;;;21.70;;
64560;SDS011;50960;46.838;16.838;2023-12-29T04:44:22;23.35;;;20.90;;
64560;SDS011;50960;46.838;16.838;2023-12-29T04:46:48;21.65;;;19.50;;
64560;SDS011;50960;46.838;16.838;2023-12-29T04:49:15;21.67;;;19.58;;
64560;SDS011;50960;46.838;16.838;2023-12-29T04:51:41;20.77;;;18.77;;
64560;SDS011;50960;46.838;16.838;2023-12-29T04:54:07;20.92;;;18.83;;
64560;SDS011;50960;46.838;16.838;2023-12-29T04:56:34;22.45;;;19.77;;
64560;SDS011;50960;46.838;16.838;2023-12-29T04:59:00;20.83;;;18.83;;
64560;SDS011;50960;46.838;16.838;2023-12-29T05:01:26;20.55;;;18.55;;
64560;SDS011;50960;46.838;16.838;2023-12-29T05:03:53;21.23;;;19.13;;
64560;SDS011;50960;46.838;16.838;2023-12-29T05:06:19;20.55;;;18.55;;
64560;SDS011;50960;46.838;16.838;2023-12-29T05:08:45;20.35;;;18.35;;
64560;SDS011;50960;46.838;16.838;2023-12-29T05:11:12;21.13;;;19.10;;
64560;SDS011;50960;46.838;16.838;2023-12-29T05:13:38;21.50;;;19.15;;
64560;SDS011;50960;46.838;16.838;2023-12-29T05:16:05;19.95;;;18.05;;
64560;SDS011;50960;46.838;16.838;2023-12-29T05:18:31;20.05;;;18.15;;
64560;SDS011;50960;46.838;16.838;2023-12-29T05:20:58;21.73;;;19.52;;
64560;SDS011;50960;46.838;16.838;2023-12-29T05:23:24;21.35;;;19.13;;
64560;SDS011;50960;46.838;16.838;2023-12-29T05:25:50;21.95;;;19.83;;
64560;SDS011;50960;46.838;16.838;2023-12-29T05:28:16;22.50;;;20.35;;
64560;SDS011;50960;46.838;16.838;2023-12-29T05:30:43;21.13;;;19.13;;
64560;SDS011;50960;46.838;16.838;2023-12-29T05:33:09;22.05;;;19.92;;
64560;SDS011;50960;46.838;16.838;2023-12-29T05:35:35;22.30;;;20.10;;
64560;SDS011;50960;46.838;16.838;2023-12-29T05:38:02;21.02;;;19.00;;
64560;SDS011;50960;46.838;16.838;2023-12-29T05:40:30;21.60;;;19.52;;
64560;SDS011;50960;46.838;16.838;2023-12-29T05:42:57;22.48;;;20.13;;
64560;SDS011;50960;46.838;16.838;2023-12-29T05:45:23;21.42;;;19.33;;
64560;SDS011;50960;46.838;16.838;2023-12-29T05:47:55;22.23;;;20.05;;
64560;SDS011;50960;46.838;16.838;2023-12-29T05:50:22;22.45;;;20.25;;
64560;SDS011;50960;46.838;16.838;2023-12-29T05:52:49;22.90;;;20.67;;
64560;SDS011;50960;46.838;16.838;2023-12-29T05:55:18;21.80;;;19.70;;
64560;SDS011;50960;46.838;16.838;2023-12-29T05:57:44;23.13;;;20.70;;
64560;SDS011;50960;46.838;16.838;2023-12-29T06:00:11;23.25;;;20.90;;
64560;SDS011;50960;46.838;16.838;2023-12-29T06:02:43;22.77;;;20.58;;
64560;SDS011;50960;46.838;16.838;2023-12-29T06:05:12;22.15;;;20.05;;
64560;SDS011;50960;46.838;16.838;2023-12-29T06:07:38;22.50;;;20.30;;
64560;SDS011;50960;46.838;16.838;2023-12-29T06:10:05;23.48;;;21.15;;
64560;SDS011;50960;46.838;16.838;2023-12-29T06:12:31;22.95;;;20.65;;
64560;SDS011;50960;46.838;16.838;2023-12-29T06:14:58;24.25;;;21.85;;
64560;SDS011;50960;46.838;16.838;2023-12-29T06:17:24;24.13;;;21.83;;
64560;SDS011;50960;46.838;16.838;2023-12-29T06:19:50;23.15;;;20.88;;
64560;SDS011;50960;46.838;16.838;2023-12-29T06:22:16;23.52;;;21.20;;
64560;SDS011;50960;46.838;16.838;2023-12-29T06:24:43;24.35;;;21.95;;
64560;SDS011;50960;46.838;16.838;2023-12-29T06:27:09;24.85;;;22.35;;
64560;SDS011;50960;46.838;16.838;2023-12-29T06:29:35;24.15;;;21.80;;
64560;SDS011;50960;46.838;16.838;2023-12-29T06:32:02;23.58;;;21.27;;
64560;SDS011;50960;46.838;16.838;2023-12-29T06:34:29;23.38;;;21.08;;
64560;SDS011;50960;46.838;16.838;2023-12-29T06:36:57;23.77;;;21.27;;
64560;SDS011;50960;46.838;16.838;2023-12-29T06:39:23;22.63;;;20.42;;
64560;SDS011;50960;46.838;16.838;2023-12-29T06:41:49;23.75;;;21.45;;
64560;SDS011;50960;46.838;16.838;2023-12-29T06:44:15;22.77;;;20.58;;
64560;SDS011;50960;46.838;16.838;2023-12-29T06:46:41;23.33;;;21.13;;
64560;SDS011;50960;46.838;16.838;2023-12-29T06:49:08;24.20;;;21.90;;
64560;SDS011;50960;46.838;16.838;2023-12-29T06:51:34;22.75;;;20.50;;
64560;SDS011;50960;46.838;16.838;2023-12-29T06:54:07;29.60;;;26.70;;
64560;SDS011;50960;46.838;16.838;2023-12-29T06:56:33;23.25;;;20.85;;
64560;SDS011;50960;46.838;16.838;2023-12-29T06:58:59;22.33;;;20.08;;
64560;SDS011;50960;46.838;16.838;2023-12-29T07:01:25;22.35;;;20.02;;
64560;SDS011;50960;46.838;16.838;2023-12-29T07:03:52;21.90;;;19.80;;
64560;SDS011;50960;46.838;16.838;2023-12-29T07:06:18;24.33;;;21.83;;
64560;SDS011;50960;46.838;16.838;2023-12-29T07:08:45;24.33;;;22.02;;
64560;SDS011;50960;46.838;16.838;2023-12-29T07:11:17;24.70;;;22.25;;
64560;SDS011;50960;46.838;16.838;2023-12-29T07:13:43;23.02;;;20.77;;
64560;SDS011;50960;46.838;16.838;2023-12-29T07:16:09;24.52;;;22.00;;
64560;SDS011;50960;46.838;16.838;2023-12-29T07:18:35;24.05;;;21.77;;
64560;SDS011;50960;46.838;16.838;2023-12-29T07:21:02;26.30;;;23.67;;
64560;SDS011;50960;46.838;16.838;2023-12-29T07:23:30;26.33;;;23.73;;
64560;SDS011;50960;46.838;16.838;2023-12-29T07:25:56;25.85;;;23.35;;
64560;SDS011;50960;46.838;16.838;2023-12-29T07:28:22;25.00;;;22.50;;
64560;SDS011;50960;46.838;16.838;2023-12-29T07:30:49;23.02;;;20.88;;
64560;SDS011;50960;46.838;16.838;2023-12-29T07:33:15;21.65;;;19.48;;
64560;SDS011;50960;46.838;16.838;2023-12-29T07:35:41;22.02;;;19.92;;
64560;SDS011;50960;46.838;16.838;2023-12-29T07:38:09;22.30;;;20.13;;
64560;SDS011;50960;46.838;16.838;2023-12-29T07:40:40;23.88;;;21.67;;
64560;SDS011;50960;46.838;16.838;2023-12-29T07:43:07;32.88;;;29.38;;
64560;SDS011;50960;46.838;16.838;2023-12-29T07:45:33;23.17;;;20.95;;
64560;SDS011;50960;46.838;16.838;2023-12-29T07:48:01;24.00;;;21.70;;
64560;SDS011;50960;46.838;16.838;2023-12-29T07:50:28;21.27;;;19.30;;
64560;SDS011;50960;46.838;16.838;2023-12-29T07:52:55;22.13;;;20.02;;
64560;SDS011;50960;46.838;16.838;2023-12-29T07:55:21;24.35;;;21.95;;
64560;SDS011;50960;46.838;16.838;2023-12-29T07:57:48;22.08;;;20.05;;
64560;SDS011;50960;46.838;16.838;2023-12-29T08:00:14;21.00;;;19.08;;
64560;SDS011;50960;46.838;16.838;2023-12-29T08:02:41;22.17;;;20.02;;
64560;SDS011;50960;46.838;16.838;2023-12-29T08:05:10;21.45;;;19.35;;
64560;SDS011;50960;46.838;16.838;2023-12-29T08:07:36;22.30;;;20.20;;
64560;SDS011;50960;46.838;16.838;2023-12-29T08:10:04;22.60;;;20.27;;
64560;SDS011;50960;46.838;16.838;2023-12-29T08:12:33;23.38;;;21.13;;
64560;SDS011;50960;46.838;16.838;2023-12-29T08:15:00;23.38;;;21.08;;
64560;SDS011;50960;46.838;16.838;2023-12-29T08:17:29;24.92;;;22.55;;
64560;SDS011;50960;46.838;16.838;2023-12-29T08:19:56;25.15;;;22.77;;
64560;SDS011;50960;46.838;16.838;2023-12-29T08:22:27;23.00;;;20.80;;
64560;SDS011;50960;46.838;16.838;2023-12-29T08:24:55;22.70;;;20.52;;
64560;SDS011;50960;46.838;16.838;2023-12-29T08:27:25;23.38;;;20.95;;
64560;SDS011;50960;46.838;16.838;2023-12-29T08:29:51;24.02;;;21.63;;
64560;SDS011;50960;46.838;16.838;2023-12-29T08:32:24;25.45;;;22.95;;
64560;SDS011;50960;46.838;16.838;2023-12-29T08:34:50;26.90;;;24.05;;
64560;SDS011;50960;46.838;16.838;2023-12-29T08:37:16;25.85;;;23.15;;
64560;SDS011;50960;46.838;16.838;2023-12-29T08:39:46;25.77;;;23.17;;
64560;SDS011;50960;46.838;16.838;2023-12-29T08:42:13;23.70;;;21.40;;
64560;SDS011;50960;46.838;16.838;2023-12-29T08:44:40;23.23;;;21.02;;
64560;SDS011;50960;46.838;16.838;2023-12-29T08:47:07;23.73;;;21.42;;
64560;SDS011;50960;46.838;16.838;2023-12-29T08:49:36;20.73;;;18.67;;
64560;SDS011;50960;46.838;16.838;2023-12-29T08:52:03;21.23;;;19.20;;
64560;SDS011;50960;46.838;16.838;2023-12-29T08:54:30;22.90;;;20.63;;
64560;SDS011;50960;46.838;16.838;2023-12-29T08:56:59;23.70;;;20.02;;
64560;SDS011;50960;46.838;16.838;2023-12-29T08:59:26;23.00;;;20.70;;
64560;SDS011;50960;46.838;16.838;2023-12-29T09:01:52;20.60;;;18.60;;
64560;SDS011;50960;46.838;16.838;2023-12-29T09:04:19;20.63;;;18.67;;
64560;SDS011;50960;46.838;16.838;2023-12-29T09:06:46;19.85;;;18.05;;
64560;SDS011;50960;46.838;16.838;2023-12-29T09:09:14;22.60;;;20.42;;
64560;SDS011;50960;46.838;16.838;2023-12-29T09:11:41;21.55;;;19.35;;
64560;SDS011;50960;46.838;16.838;2023-12-29T09:14:08;19.90;;;18.02;;
64560;SDS011;50960;46.838;16.838;2023-12-29T09:16:37;20.27;;;18.23;;
64560;SDS011;50960;46.838;16.838;2023-12-29T09:19:06;20.17;;;18.30;;
64560;SDS011;50960;46.838;16.838;2023-12-29T09:21:32;21.23;;;19.23;;
64560;SDS011;50960;46.838;16.838;2023-12-29T09:23:59;21.40;;;19.40;;
64560;SDS011;50960;46.838;16.838;2023-12-29T09:26:26;21.95;;;19.65;;
64560;SDS011;50960;46.838;16.838;2023-12-29T09:28:53;21.98;;;19.80;;
64560;SDS011;50960;46.838;16.838;2023-12-29T09:31:19;22.45;;;20.25;;
64560;SDS011;50960;46.838;16.838;2023-12-29T09:33:45;22.25;;;20.08;;
64560;SDS011;50960;46.838;16.838;2023-12-29T09:36:11;23.35;;;21.05;;
64560;SDS011;50960;46.838;16.838;2023-12-29T09:38:37;23.10;;;20.77;;
64560;SDS011;50960;46.838;16.838;2023-12-29T09:41:04;23.55;;;21.05;;
64560;SDS011;50960;46.838;16.838;2023-12-29T09:43:36;22.50;;;20.38;;
64560;SDS011;50960;46.838;16.838;2023-12-29T09:46:07;22.73;;;20.52;;
64560;SDS011;50960;46.838;16.838;2023-12-29T09:48:36;24.60;;;22.08;;
64560;SDS011;50960;46.838;16.838;2023-12-29T09:51:06;24.75;;;22.17;;
64560;SDS011;50960;46.838;16.838;2023-12-29T09:53:34;24.77;;;22.33;;
64560;SDS011;50960;46.838;16.838;2023-12-29T09:56:04;23.45;;;20.95;;
64560;SDS011;50960;46.838;16.838;2023-12-29T09:58:33;24.63;;;22.02;;
64560;SDS011;50960;46.838;16.838;2023-12-29T10:01:01;23.90;;;21.50;;
64560;SDS011;50960;46.838;16.838;2023-12-29T10:03:29;24.20;;;21.80;;
64560;SDS011;50960;46.838;16.838;2023-12-29T10:05:55;21.67;;;19.38;;
64560;SDS011;50960;46.838;16.838;2023-12-29T10:08:25;20.95;;;18.75;;
64560;SDS011;50960;46.838;16.838;2023-12-29T10:10:55;17.83;;;16.08;;
64560;SDS011;50960;46.838;16.838;2023-12-29T10:13:26;15.57;;;13.98;;
64560;SDS011;50960;46.838;16.838;2023-12-29T10:21:01;9.23;;;8.32;;
64560;SDS011;50960;46.838;16.838;2023-12-29T10:23:38;8.60;;;7.80;;
64560;SDS011;50960;46.838;16.838;2023-12-29T10:26:15;13.18;;;11.50;;
64560;SDS011;50960;46.838;16.838;2023-12-29T10:28:43;8.82;;;8.02;;
64560;SDS011;50960;46.838;16.838;2023-12-29T10:31:10;8.10;;;7.40;;
64560;SDS011;50960;46.838;16.838;2023-12-29T10:33:40;7.40;;;6.78;;
64560;SDS011;50960;46.838;16.838;2023-12-29T10:36:08;7.80;;;7.10;;
64560;SDS011;50960;46.838;16.838;2023-12-29T10:41:14;7.55;;;6.80;;
64560;SDS011;50960;46.838;16.838;2023-12-29T10:43:42;7.93;;;7.13;;
64560;SDS011;50960;46.838;16.838;2023-12-29T10:46:11;8.27;;;7.47;;
64560;SDS011;50960;46.838;16.838;2023-12-29T10:48:37;9.02;;;7.07;;
64560;SDS011;50960;46.838;16.838;2023-12-29T10:51:05;8.55;;;7.75;;
64560;SDS011;50960;46.838;16.838;2023-12-29T10:53:32;7.70;;;7.00;;
64560;SDS011;50960;46.838;16.838;2023-12-29T10:55:59;7.93;;;7.15;;
64560;SDS011;50960;46.838;16.838;2023-12-29T10:58:26;6.75;;;6.00;;
64560;SDS011;50960;46.838;16.838;2023-12-29T11:00:57;7.15;;;6.05;;
64560;SDS011;50960;46.838;16.838;2023-12-29T11:03:25;6.90;;;6.20;;
64560;SDS011;50960;46.838;16.838;2023-12-29T11:06:01;9.20;;;8.23;;
64560;SDS011;50960;46.838;16.838;2023-12-29T11:08:27;6.22;;;5.63;;
64560;SDS011;50960;46.838;16.838;2023-12-29T11:10:54;7.47;;;6.00;;
64560;SDS011;50960;46.838;16.838;2023-12-29T11:13:21;6.32;;;5.78;;
64560;SDS011;50960;46.838;16.838;2023-12-29T11:15:48;6.18;;;5.68;;
64560;SDS011;50960;46.838;16.838;2023-12-29T11:18:15;6.80;;;6.10;;
64560;SDS011;50960;46.838;16.838;2023-12-29T11:20:42;6.55;;;5.95;;
64560;SDS011;50960;46.838;16.838;2023-12-29T11:23:11;6.57;;;5.95;;
64560;SDS011;50960;46.838;16.838;2023-12-29T11:25:40;6.43;;;5.82;;
64560;SDS011;50960;46.838;16.838;2023-12-29T11:28:08;6.63;;;6.03;;
64560;SDS011;50960;46.838;16.838;2023-12-29T11:30:37;7.95;;;5.95;;
64560;SDS011;50960;46.838;16.838;2023-12-29T11:35:44;6.32;;;5.80;;
64560;SDS011;50960;46.838;16.838;2023-12-29T11:38:23;18.10;;;14.30;;
64560;SDS011;50960;46.838;16.838;2023-12-29T11:43:37;8.30;;;5.85;;
64560;SDS011;50960;46.838;16.838;2023-12-29T11:46:03;7.00;;;5.70;;
64560;SDS011;50960;46.838;16.838;2023-12-29T11:51:32;6.68;;;6.10;;
64560;SDS011;50960;46.838;16.838;2023-12-29T11:54:01;6.07;;;5.47;;
64560;SDS011;50960;46.838;16.838;2023-12-29T11:56:31;6.57;;;5.97;;
64560;SDS011;50960;46.838;16.838;2023-12-29T11:59:11;20.38;;;14.80;;
64560;SDS011;50960;46.838;16.838;2023-12-29T12:01:38;10.35;;;7.28;;
64560;SDS011;50960;46.838;16.838;2023-12-29T12:06:55;7.50;;;6.75;;
64560;SDS011;50960;46.838;16.838;2023-12-29T12:09:22;6.68;;;6.07;;
64560;SDS011;50960;46.838;16.838;2023-12-29T12:11:52;5.78;;;4.95;;
64560;SDS011;50960;46.838;16.838;2023-12-29T12:17:03;6.00;;;4.75;;
64560;SDS011;50960;46.838;16.838;2023-12-29T12:19:31;5.28;;;4.35;;
64560;SDS011;50960;46.838;16.838;2023-12-29T12:22:00;5.15;;;4.75;;
64560;SDS011;50960;46.838;16.838;2023-12-29T12:24:28;5.30;;;4.80;;
64560;SDS011;50960;46.838;16.838;2023-12-29T12:26:56;4.90;;;4.50;;
64560;SDS011;50960;46.838;16.838;2023-12-29T12:29:24;4.80;;;4.40;;
64560;SDS011;50960;46.838;16.838;2023-12-29T12:31:55;5.63;;;5.03;;
64560;SDS011;50960;46.838;16.838;2023-12-29T12:34:22;4.82;;;4.40;;
64560;SDS011;50960;46.838;16.838;2023-12-29T12:36:51;4.95;;;4.55;;
64560;SDS011;50960;46.838;16.838;2023-12-29T12:39:18;4.88;;;4.38;;
64560;SDS011;50960;46.838;16.838;2023-12-29T12:41:45;4.78;;;4.38;;
64560;SDS011;50960;46.838;16.838;2023-12-29T12:44:15;5.78;;;4.93;;
64560;SDS011;50960;46.838;16.838;2023-12-29T12:46:44;6.85;;;5.30;;
64560;SDS011;50960;46.838;16.838;2023-12-29T12:49:18;6.35;;;5.20;;
64560;SDS011;50960;46.838;16.838;2023-12-29T12:51:47;5.90;;;5.30;;
64560;SDS011;50960;46.838;16.838;2023-12-29T12:54:15;7.38;;;5.65;;
64560;SDS011;50960;46.838;16.838;2023-12-29T12:56:43;7.78;;;5.50;;
64560;SDS011;50960;46.838;16.838;2023-12-29T12:59:10;6.28;;;5.68;;
64560;SDS011;50960;46.838;16.838;2023-12-29T13:01:37;8.30;;;6.22;;
64560;SDS011;50960;46.838;16.838;2023-12-29T13:04:06;6.32;;;5.57;;
64560;SDS011;50960;46.838;16.838;2023-12-29T13:06:34;6.45;;;5.65;;
64560;SDS011;50960;46.838;16.838;2023-12-29T13:09:07;6.85;;;5.97;;
64560;SDS011;50960;46.838;16.838;2023-12-29T13:11:37;6.25;;;5.65;;
64560;SDS011;50960;46.838;16.838;2023-12-29T13:14:05;6.55;;;5.57;;
64560;SDS011;50960;46.838;16.838;2023-12-29T13:16:33;6.10;;;5.50;;
64560;SDS011;50960;46.838;16.838;2023-12-29T13:19:15;5.90;;;5.30;;
64560;SDS011;50960;46.838;16.838;2023-12-29T13:21:42;6.88;;;6.28;;
64560;SDS011;50960;46.838;16.838;2023-12-29T13:24:11;7.88;;;5.95;;
64560;SDS011;50960;46.838;16.838;2023-12-29T13:26:45;6.82;;;6.07;;
64560;SDS011;50960;46.838;16.838;2023-12-29T13:29:21;6.40;;;5.80;;
64560;SDS011;50960;46.838;16.838;2023-12-29T13:31:48;7.20;;;6.50;;
64560;SDS011;50960;46.838;16.838;2023-12-29T13:34:17;7.00;;;6.32;;
64560;SDS011;50960;46.838;16.838;2023-12-29T13:37:03;7.25;;;6.55;;
64560;SDS011;50960;46.838;16.838;2023-12-29T13:41:59;7.32;;;6.63;;
64560;SDS011;50960;46.838;16.838;2023-12-29T13:44:26;12.15;;;6.97;;
64560;SDS011;50960;46.838;16.838;2023-12-29T13:46:55;11.88;;;8.20;;
64560;SDS011;50960;46.838;16.838;2023-12-29T13:49:22;13.07;;;8.00;;
64560;SDS011;50960;46.838;16.838;2023-12-29T13:51:49;11.80;;;7.65;;
64560;SDS011;50960;46.838;16.838;2023-12-29T13:54:17;11.60;;;7.93;;
64560;SDS011;50960;46.838;16.838;2023-12-29T13:56:50;11.32;;;8.45;;
64560;SDS011;50960;46.838;16.838;2023-12-29T13:59:18;12.38;;;8.88;;
64560;SDS011;50960;46.838;16.838;2023-12-29T14:01:44;14.50;;;8.73;;
64560;SDS011;50960;46.838;16.838;2023-12-29T14:04:11;11.57;;;8.70;;
64560;SDS011;50960;46.838;16.838;2023-12-29T14:06:40;13.10;;;8.85;;
64560;SDS011;50960;46.838;16.838;2023-12-29T14:09:13;11.30;;;8.57;;
64560;SDS011;50960;46.838;16.838;2023-12-29T14:11:45;14.63;;;9.13;;
64560;SDS011;50960;46.838;16.838;2023-12-29T14:14:12;13.63;;;8.95;;
64560;SDS011;50960;46.838;16.838;2023-12-29T14:16:41;13.20;;;9.10;;
64560;SDS011;50960;46.838;16.838;2023-12-29T14:19:07;12.35;;;8.85;;
64560;SDS011;50960;46.838;16.838;2023-12-29T14:21:34;13.10;;;8.57;;
64560;SDS011;50960;46.838;16.838;2023-12-29T14:26:28;13.63;;;9.00;;
64560;SDS011;50960;46.838;16.838;2023-12-29T14:29:05;12.27;;;8.85;;
64560;SDS011;50960;46.838;16.838;2023-12-29T14:31:35;13.50;;;8.82;;
64560;SDS011;50960;46.838;16.838;2023-12-29T14:34:05;12.60;;;9.15;;
64560;SDS011;50960;46.838;16.838;2023-12-29T14:36:33;10.25;;;8.73;;
64560;SDS011;50960;46.838;16.838;2023-12-29T14:38:59;12.77;;;10.05;;
64560;SDS011;50960;46.838;16.838;2023-12-29T14:41:26;11.65;;;9.32;;
64560;SDS011;50960;46.838;16.838;2023-12-29T14:43:53;11.27;;;9.02;;
64560;SDS011;50960;46.838;16.838;2023-12-29T14:46:20;12.30;;;9.50;;
64560;SDS011;50960;46.838;16.838;2023-12-29T14:48:47;13.57;;;9.60;;
64560;SDS011;50960;46.838;16.838;2023-12-29T14:51:14;11.48;;;9.52;;